sensor_id;sensor_type;location;lat;lon;timestamp;temperature;humidity
80743;SHT31;70142;50.894;6.052;2024-02-26T00:01:46;7.19;79.16
80743;SHT31;70142;50.894;6.052;2024-02-26T00:04:19;7.15;78.53
80743;SHT31;70142;50.894;6.052;2024-02-26T00:06:56;7.22;78.88
80743;SHT31;70142;50.894;6.052;2024-02-26T00:09:32;7.19;78.87
80743;SHT31;70142;50.894;6.052;2024-02-26T00:12:08;7.20;80.11
80743;SHT31;70142;50.894;6.052;2024-02-26T00:14:42;7.22;79.56
80743;SHT31;70142;50.894;6.052;2024-02-26T00:17:18;7.19;79.80
80743;SHT31;70142;50.894;6.052;2024-02-26T00:19:51;7.23;79.60
80743;SHT31;70142;50.894;6.052;2024-02-26T00:22:25;7.16;79.60
80743;SHT31;70142;50.894;6.052;2024-02-26T00:24:58;7.09;79.31
80743;SHT31;70142;50.894;6.052;2024-02-26T00:27:31;7.12;80.04
80743;SHT31;70142;50.894;6.052;2024-02-26T00:30:07;7.12;80.34
80743;SHT31;70142;50.894;6.052;2024-02-26T00:32:40;7.08;80.08
80743;SHT31;70142;50.894;6.052;2024-02-26T00:35:14;7.08;80.04
80743;SHT31;70142;50.894;6.052;2024-02-26T00:37:50;7.12;80.36
80743;SHT31;70142;50.894;6.052;2024-02-26T00:40:23;7.11;80.34
80743;SHT31;70142;50.894;6.052;2024-02-26T00:42:56;7.06;80.34
80743;SHT31;70142;50.894;6.052;2024-02-26T00:45:31;7.09;80.13
80743;SHT31;70142;50.894;6.052;2024-02-26T00:48:05;7.12;81.14
80743;SHT31;70142;50.894;6.052;2024-02-26T00:50:39;7.11;80.67
80743;SHT31;70142;50.894;6.052;2024-02-26T00:53:12;7.12;81.15
80743;SHT31;70142;50.894;6.052;2024-02-26T00:55:46;7.12;81.20
80743;SHT31;70142;50.894;6.052;2024-02-26T00:58:19;6.99;81.37
80743;SHT31;70142;50.894;6.052;2024-02-26T01:00:56;6.99;82.03
80743;SHT31;70142;50.894;6.052;2024-02-26T01:03:29;6.98;81.79
80743;SHT31;70142;50.894;6.052;2024-02-26T01:06:03;6.99;81.78
80743;SHT31;70142;50.894;6.052;2024-02-26T01:08:36;7.05;81.79
80743;SHT31;70142;50.894;6.052;2024-02-26T01:11:09;7.06;81.60
80743;SHT31;70142;50.894;6.052;2024-02-26T01:13:43;7.08;81.68
80743;SHT31;70142;50.894;6.052;2024-02-26T01:16:17;7.06;81.55
80743;SHT31;70142;50.894;6.052;2024-02-26T01:18:50;7.09;81.99
80743;SHT31;70142;50.894;6.052;2024-02-26T01:21:24;7.11;82.02
80743;SHT31;70142;50.894;6.052;2024-02-26T01:23:58;7.16;81.74
80743;SHT31;70142;50.894;6.052;2024-02-26T01:26:32;7.11;81.79
80743;SHT31;70142;50.894;6.052;2024-02-26T01:29:05;7.11;81.85
80743;SHT31;70142;50.894;6.052;2024-02-26T01:31:40;7.18;82.05
80743;SHT31;70142;50.894;6.052;2024-02-26T01:34:13;7.19;82.02
80743;SHT31;70142;50.894;6.052;2024-02-26T01:36:46;7.19;82.05
80743;SHT31;70142;50.894;6.052;2024-02-26T01:39:20;7.15;81.88
80743;SHT31;70142;50.894;6.052;2024-02-26T01:41:54;7.11;81.96
80743;SHT31;70142;50.894;6.052;2024-02-26T01:44:27;7.15;82.30
80743;SHT31;70142;50.894;6.052;2024-02-26T01:47:03;7.15;82.26
80743;SHT31;70142;50.894;6.052;2024-02-26T01:49:36;7.20;82.43
80743;SHT31;70142;50.894;6.052;2024-02-26T01:52:11;7.20;82.14
80743;SHT31;70142;50.894;6.052;2024-02-26T01:54:45;7.24;82.31
80743;SHT31;70142;50.894;6.052;2024-02-26T01:57:19;7.23;82.13
80743;SHT31;70142;50.894;6.052;2024-02-26T01:59:52;7.19;82.22
80743;SHT31;70142;50.894;6.052;2024-02-26T02:02:27;7.23;82.49
80743;SHT31;70142;50.894;6.052;2024-02-26T02:05:00;7.27;82.58
80743;SHT31;70142;50.894;6.052;2024-02-26T02:07:35;7.26;82.43
80743;SHT31;70142;50.894;6.052;2024-02-26T02:10:09;7.24;82.67
80743;SHT31;70142;50.894;6.052;2024-02-26T02:12:43;7.24;82.52
80743;SHT31;70142;50.894;6.052;2024-02-26T02:15:16;7.29;82.90
80743;SHT31;70142;50.894;6.052;2024-02-26T02:17:52;7.26;83.18
80743;SHT31;70142;50.894;6.052;2024-02-26T02:20:31;7.29;82.90
80743;SHT31;70142;50.894;6.052;2024-02-26T02:23:06;7.23;82.67
80743;SHT31;70142;50.894;6.052;2024-02-26T02:25:39;7.20;82.58
80743;SHT31;70142;50.894;6.052;2024-02-26T02:28:12;7.18;82.84
80743;SHT31;70142;50.894;6.052;2024-02-26T02:30:45;7.19;83.12
80743;SHT31;70142;50.894;6.052;2024-02-26T02:33:19;7.16;82.98
80743;SHT31;70142;50.894;6.052;2024-02-26T02:35:54;7.18;83.13
80743;SHT31;70142;50.894;6.052;2024-02-26T02:38:28;7.19;83.05
80743;SHT31;70142;50.894;6.052;2024-02-26T02:41:02;7.27;83.12
80743;SHT31;70142;50.894;6.052;2024-02-26T02:43:35;7.22;83.51
80743;SHT31;70142;50.894;6.052;2024-02-26T02:46:08;7.23;83.46
80743;SHT31;70142;50.894;6.052;2024-02-26T02:48:43;7.20;83.34
80743;SHT31;70142;50.894;6.052;2024-02-26T02:51:18;7.15;83.75
80743;SHT31;70142;50.894;6.052;2024-02-26T02:53:51;7.13;83.62
80743;SHT31;70142;50.894;6.052;2024-02-26T02:56:25;7.12;83.77
80743;SHT31;70142;50.894;6.052;2024-02-26T02:58:58;7.19;83.85
80743;SHT31;70142;50.894;6.052;2024-02-26T03:01:31;7.18;83.87
80743;SHT31;70142;50.894;6.052;2024-02-26T03:04:04;7.18;84.17
80743;SHT31;70142;50.894;6.052;2024-02-26T03:06:39;7.13;84.06
80743;SHT31;70142;50.894;6.052;2024-02-26T03:09:12;7.20;84.60
80743;SHT31;70142;50.894;6.052;2024-02-26T03:11:46;7.11;84.07
80743;SHT31;70142;50.894;6.052;2024-02-26T03:14:19;7.06;84.34
80743;SHT31;70142;50.894;6.052;2024-02-26T03:16:53;7.02;84.65
80743;SHT31;70142;50.894;6.052;2024-02-26T03:19:27;7.01;84.78
80743;SHT31;70142;50.894;6.052;2024-02-26T03:22:01;6.95;84.50
80743;SHT31;70142;50.894;6.052;2024-02-26T03:24:35;6.96;84.94
80743;SHT31;70142;50.894;6.052;2024-02-26T03:27:08;6.99;84.74
80743;SHT31;70142;50.894;6.052;2024-02-26T03:29:41;6.95;84.66
80743;SHT31;70142;50.894;6.052;2024-02-26T03:32:14;6.92;84.66
80743;SHT31;70142;50.894;6.052;2024-02-26T03:34:48;6.92;84.84
80743;SHT31;70142;50.894;6.052;2024-02-26T03:37:22;6.95;84.95
80743;SHT31;70142;50.894;6.052;2024-02-26T03:39:56;6.93;84.88
80743;SHT31;70142;50.894;6.052;2024-02-26T03:42:29;6.85;84.61
80743;SHT31;70142;50.894;6.052;2024-02-26T03:45:03;6.85;84.87
80743;SHT31;70142;50.894;6.052;2024-02-26T03:47:38;6.85;85.17
80743;SHT31;70142;50.894;6.052;2024-02-26T03:50:11;6.96;85.02
80743;SHT31;70142;50.894;6.052;2024-02-26T03:52:46;7.06;84.80
80743;SHT31;70142;50.894;6.052;2024-02-26T03:55:19;7.09;84.75
80743;SHT31;70142;50.894;6.052;2024-02-26T03:57:56;7.11;84.48
80743;SHT31;70142;50.894;6.052;2024-02-26T04:00:29;7.08;84.34
80743;SHT31;70142;50.894;6.052;2024-02-26T04:03:03;7.01;84.22
80743;SHT31;70142;50.894;6.052;2024-02-26T04:05:36;7.02;84.88
80743;SHT31;70142;50.894;6.052;2024-02-26T04:08:14;7.13;84.29
80743;SHT31;70142;50.894;6.052;2024-02-26T04:10:47;7.11;84.13
80743;SHT31;70142;50.894;6.052;2024-02-26T04:13:20;7.18;84.33
80743;SHT31;70142;50.894;6.052;2024-02-26T04:15:53;7.08;84.11
80743;SHT31;70142;50.894;6.052;2024-02-26T04:18:27;7.01;84.24
80743;SHT31;70142;50.894;6.052;2024-02-26T04:21:00;7.03;84.66
80743;SHT31;70142;50.894;6.052;2024-02-26T04:23:37;7.08;84.22
80743;SHT31;70142;50.894;6.052;2024-02-26T04:26:10;7.01;84.29
80743;SHT31;70142;50.894;6.052;2024-02-26T04:28:43;7.01;84.10
80743;SHT31;70142;50.894;6.052;2024-02-26T04:31:16;6.92;84.55
80743;SHT31;70142;50.894;6.052;2024-02-26T04:33:50;6.96;84.80
80743;SHT31;70142;50.894;6.052;2024-02-26T04:36:23;6.98;84.62
80743;SHT31;70142;50.894;6.052;2024-02-26T04:38:59;7.03;84.75
80743;SHT31;70142;50.894;6.052;2024-02-26T04:41:34;6.96;84.58
80743;SHT31;70142;50.894;6.052;2024-02-26T04:44:07;6.91;84.91
80743;SHT31;70142;50.894;6.052;2024-02-26T04:46:40;6.95;84.79
80743;SHT31;70142;50.894;6.052;2024-02-26T04:49:14;6.98;84.68
80743;SHT31;70142;50.894;6.052;2024-02-26T04:51:47;6.91;84.97
80743;SHT31;70142;50.894;6.052;2024-02-26T04:54:24;6.92;84.95
80743;SHT31;70142;50.894;6.052;2024-02-26T04:56:57;7.01;85.06
80743;SHT31;70142;50.894;6.052;2024-02-26T04:59:31;7.06;84.47
80743;SHT31;70142;50.894;6.052;2024-02-26T05:02:04;7.02;84.26
80743;SHT31;70142;50.894;6.052;2024-02-26T05:04:38;7.02;84.51
80743;SHT31;70142;50.894;6.052;2024-02-26T05:07:11;7.05;84.41
80743;SHT31;70142;50.894;6.052;2024-02-26T05:09:46;7.03;84.43
80743;SHT31;70142;50.894;6.052;2024-02-26T05:12:21;7.03;84.74
80743;SHT31;70142;50.894;6.052;2024-02-26T05:14:54;7.11;84.62
80743;SHT31;70142;50.894;6.052;2024-02-26T05:17:28;7.12;84.34
80743;SHT31;70142;50.894;6.052;2024-02-26T05:20:01;7.12;84.56
80743;SHT31;70142;50.894;6.052;2024-02-26T05:22:35;7.02;84.65
80743;SHT31;70142;50.894;6.052;2024-02-26T05:25:09;7.05;84.60
80743;SHT31;70142;50.894;6.052;2024-02-26T05:27:44;7.01;84.74
80743;SHT31;70142;50.894;6.052;2024-02-26T05:30:17;6.99;84.68
80743;SHT31;70142;50.894;6.052;2024-02-26T05:32:53;6.99;84.83
80743;SHT31;70142;50.894;6.052;2024-02-26T05:35:26;7.02;84.74
80743;SHT31;70142;50.894;6.052;2024-02-26T05:37:59;7.01;84.85
80743;SHT31;70142;50.894;6.052;2024-02-26T05:40:34;6.98;84.59
80743;SHT31;70142;50.894;6.052;2024-02-26T05:43:07;6.96;84.54
80743;SHT31;70142;50.894;6.052;2024-02-26T05:45:40;6.87;84.96
80743;SHT31;70142;50.894;6.052;2024-02-26T05:48:13;6.84;84.91
80743;SHT31;70142;50.894;6.052;2024-02-26T05:50:47;6.88;84.95
80743;SHT31;70142;50.894;6.052;2024-02-26T05:53:20;6.87;84.94
80743;SHT31;70142;50.894;6.052;2024-02-26T05:55:57;6.82;85.02
80743;SHT31;70142;50.894;6.052;2024-02-26T05:58:30;6.79;85.52
80743;SHT31;70142;50.894;6.052;2024-02-26T06:01:03;6.71;85.78
80743;SHT31;70142;50.894;6.052;2024-02-26T06:03:37;6.72;85.71
80743;SHT31;70142;50.894;6.052;2024-02-26T06:06:12;6.71;85.96
80743;SHT31;70142;50.894;6.052;2024-02-26T06:08:49;6.72;85.72
80743;SHT31;70142;50.894;6.052;2024-02-26T06:11:24;6.65;86.02
80743;SHT31;70142;50.894;6.052;2024-02-26T06:13:57;6.65;86.09
80743;SHT31;70142;50.894;6.052;2024-02-26T06:16:37;6.63;86.06
80743;SHT31;70142;50.894;6.052;2024-02-26T06:19:10;6.64;86.26
80743;SHT31;70142;50.894;6.052;2024-02-26T06:21:45;6.48;86.56
80743;SHT31;70142;50.894;6.052;2024-02-26T06:24:20;6.54;86.48
80743;SHT31;70142;50.894;6.052;2024-02-26T06:26:55;6.54;86.69
80743;SHT31;70142;50.894;6.052;2024-02-26T06:29:29;6.63;86.43
80743;SHT31;70142;50.894;6.052;2024-02-26T06:32:02;6.61;86.37
80743;SHT31;70142;50.894;6.052;2024-02-26T06:34:35;6.67;86.02
80743;SHT31;70142;50.894;6.052;2024-02-26T06:37:10;6.64;86.06
80743;SHT31;70142;50.894;6.052;2024-02-26T06:39:43;6.61;85.87
80743;SHT31;70142;50.894;6.052;2024-02-26T06:42:18;6.52;86.16
80743;SHT31;70142;50.894;6.052;2024-02-26T06:44:52;6.57;86.14
80743;SHT31;70142;50.894;6.052;2024-02-26T06:47:26;6.48;86.24
80743;SHT31;70142;50.894;6.052;2024-02-26T06:49:59;6.54;86.27
80743;SHT31;70142;50.894;6.052;2024-02-26T06:52:33;6.64;86.21
80743;SHT31;70142;50.894;6.052;2024-02-26T06:55:06;6.67;86.01
80743;SHT31;70142;50.894;6.052;2024-02-26T06:57:41;6.61;86.34
80743;SHT31;70142;50.894;6.052;2024-02-26T07:00:15;6.63;86.33
80743;SHT31;70142;50.894;6.052;2024-02-26T07:02:49;6.59;86.61
80743;SHT31;70142;50.894;6.052;2024-02-26T07:05:22;6.55;86.75
80743;SHT31;70142;50.894;6.052;2024-02-26T07:07:55;6.61;86.72
80743;SHT31;70142;50.894;6.052;2024-02-26T07:10:28;6.58;86.58
80743;SHT31;70142;50.894;6.052;2024-02-26T07:13:03;6.51;86.86
80743;SHT31;70142;50.894;6.052;2024-02-26T07:15:36;6.58;87.10
80743;SHT31;70142;50.894;6.052;2024-02-26T07:18:10;6.63;86.71
80743;SHT31;70142;50.894;6.052;2024-02-26T07:20:43;6.71;86.67
80743;SHT31;70142;50.894;6.052;2024-02-26T07:23:16;6.77;86.49
80743;SHT31;70142;50.894;6.052;2024-02-26T07:25:50;6.79;86.24
80743;SHT31;70142;50.894;6.052;2024-02-26T07:28:26;6.81;86.19
80743;SHT31;70142;50.894;6.052;2024-02-26T07:30:59;6.75;86.27
80743;SHT31;70142;50.894;6.052;2024-02-26T07:33:32;6.68;86.54
80743;SHT31;70142;50.894;6.052;2024-02-26T07:36:08;6.77;86.63
80743;SHT31;70142;50.894;6.052;2024-02-26T07:38:41;6.82;86.67
80743;SHT31;70142;50.894;6.052;2024-02-26T07:41:17;6.85;86.15
80743;SHT31;70142;50.894;6.052;2024-02-26T07:43:51;6.88;86.41
80743;SHT31;70142;50.894;6.052;2024-02-26T07:46:24;6.77;86.64
80743;SHT31;70142;50.894;6.052;2024-02-26T07:48:58;6.89;86.64
80743;SHT31;70142;50.894;6.052;2024-02-26T07:51:31;6.91;86.33
80743;SHT31;70142;50.894;6.052;2024-02-26T07:54:04;6.95;86.54
80743;SHT31;70142;50.894;6.052;2024-02-26T07:56:38;7.02;86.34
80743;SHT31;70142;50.894;6.052;2024-02-26T07:59:12;7.12;86.08
80743;SHT31;70142;50.894;6.052;2024-02-26T08:01:49;7.08;85.73
80743;SHT31;70142;50.894;6.052;2024-02-26T08:04:28;6.92;86.12
80743;SHT31;70142;50.894;6.052;2024-02-26T08:07:01;6.82;86.30
80743;SHT31;70142;50.894;6.052;2024-02-26T08:09:34;6.84;86.32
80743;SHT31;70142;50.894;6.052;2024-02-26T08:12:08;6.77;86.39
80743;SHT31;70142;50.894;6.052;2024-02-26T08:14:43;6.78;86.73
80743;SHT31;70142;50.894;6.052;2024-02-26T08:17:16;6.85;86.66
80743;SHT31;70142;50.894;6.052;2024-02-26T08:19:50;6.95;86.47
80743;SHT31;70142;50.894;6.052;2024-02-26T08:22:23;7.02;86.09
80743;SHT31;70142;50.894;6.052;2024-02-26T08:24:56;7.09;85.85
80743;SHT31;70142;50.894;6.052;2024-02-26T08:27:29;7.03;85.80
80743;SHT31;70142;50.894;6.052;2024-02-26T08:30:05;7.12;85.95
80743;SHT31;70142;50.894;6.052;2024-02-26T08:32:39;7.13;85.51
80743;SHT31;70142;50.894;6.052;2024-02-26T08:35:12;7.01;85.84
80743;SHT31;70142;50.894;6.052;2024-02-26T08:37:46;6.93;86.09
80743;SHT31;70142;50.894;6.052;2024-02-26T08:40:20;6.88;86.29
80743;SHT31;70142;50.894;6.052;2024-02-26T08:42:53;6.93;86.18
80743;SHT31;70142;50.894;6.052;2024-02-26T08:45:30;6.92;86.25
80743;SHT31;70142;50.894;6.052;2024-02-26T08:48:04;7.06;86.27
80743;SHT31;70142;50.894;6.052;2024-02-26T08:50:38;6.98;86.07
80743;SHT31;70142;50.894;6.052;2024-02-26T08:53:11;6.95;86.28
80743;SHT31;70142;50.894;6.052;2024-02-26T08:55:44;6.91;86.47
80743;SHT31;70142;50.894;6.052;2024-02-26T08:58:17;6.91;86.69
80743;SHT31;70142;50.894;6.052;2024-02-26T09:00:53;6.93;86.64
80743;SHT31;70142;50.894;6.052;2024-02-26T09:03:26;7.03;86.21
80743;SHT31;70142;50.894;6.052;2024-02-26T09:06:00;6.98;86.17
80743;SHT31;70142;50.894;6.052;2024-02-26T09:08:34;7.03;86.53
80743;SHT31;70142;50.894;6.052;2024-02-26T09:11:08;7.05;86.42
80743;SHT31;70142;50.894;6.052;2024-02-26T09:13:42;6.98;86.28
80743;SHT31;70142;50.894;6.052;2024-02-26T09:16:17;7.03;86.55
80743;SHT31;70142;50.894;6.052;2024-02-26T09:18:50;7.09;86.52
80743;SHT31;70142;50.894;6.052;2024-02-26T09:21:23;7.18;86.39
80743;SHT31;70142;50.894;6.052;2024-02-26T09:23:57;7.15;86.23
80743;SHT31;70142;50.894;6.052;2024-02-26T09:26:30;7.18;86.45
80743;SHT31;70142;50.894;6.052;2024-02-26T09:29:03;7.13;86.26
80743;SHT31;70142;50.894;6.052;2024-02-26T09:31:38;7.12;86.39
80743;SHT31;70142;50.894;6.052;2024-02-26T09:34:13;7.15;86.24
80743;SHT31;70142;50.894;6.052;2024-02-26T09:36:46;7.20;86.49
80743;SHT31;70142;50.894;6.052;2024-02-26T09:39:19;7.27;86.32
80743;SHT31;70142;50.894;6.052;2024-02-26T09:41:54;7.34;86.21
80743;SHT31;70142;50.894;6.052;2024-02-26T09:44:28;7.33;86.10
80743;SHT31;70142;50.894;6.052;2024-02-26T09:47:08;7.33;86.14
80743;SHT31;70142;50.894;6.052;2024-02-26T09:49:42;7.37;86.32
80743;SHT31;70142;50.894;6.052;2024-02-26T09:52:16;7.30;85.65
80743;SHT31;70142;50.894;6.052;2024-02-26T09:54:52;7.30;85.96
80743;SHT31;70142;50.894;6.052;2024-02-26T09:57:26;7.23;86.11
80743;SHT31;70142;50.894;6.052;2024-02-26T10:00:03;7.33;86.36
80743;SHT31;70142;50.894;6.052;2024-02-26T10:02:40;7.37;85.84
80743;SHT31;70142;50.894;6.052;2024-02-26T10:05:17;7.30;85.89
80743;SHT31;70142;50.894;6.052;2024-02-26T10:07:52;7.46;86.06
80743;SHT31;70142;50.894;6.052;2024-02-26T10:10:29;7.43;85.54
80743;SHT31;70142;50.894;6.052;2024-02-26T10:13:04;7.53;85.92
80743;SHT31;70142;50.894;6.052;2024-02-26T10:15:41;7.49;85.00
80743;SHT31;70142;50.894;6.052;2024-02-26T10:18:16;7.42;85.18
80743;SHT31;70142;50.894;6.052;2024-02-26T10:20:59;7.44;85.51
80743;SHT31;70142;50.894;6.052;2024-02-26T10:23:33;7.43;84.77
80743;SHT31;70142;50.894;6.052;2024-02-26T10:26:07;7.36;84.57
80743;SHT31;70142;50.894;6.052;2024-02-26T10:28:42;7.37;84.27
80743;SHT31;70142;50.894;6.052;2024-02-26T10:31:15;7.36;84.55
80743;SHT31;70142;50.894;6.052;2024-02-26T10:33:50;7.42;85.06
80743;SHT31;70142;50.894;6.052;2024-02-26T10:36:28;7.46;84.47
80743;SHT31;70142;50.894;6.052;2024-02-26T10:39:18;7.54;84.62
80743;SHT31;70142;50.894;6.052;2024-02-26T10:41:52;7.60;84.94
80743;SHT31;70142;50.894;6.052;2024-02-26T10:44:25;7.73;84.04
80743;SHT31;70142;50.894;6.052;2024-02-26T10:47:02;7.78;84.72
80743;SHT31;70142;50.894;6.052;2024-02-26T10:49:37;7.88;84.71
80743;SHT31;70142;50.894;6.052;2024-02-26T10:52:12;7.97;83.93
80743;SHT31;70142;50.894;6.052;2024-02-26T10:54:47;7.84;83.78
80743;SHT31;70142;50.894;6.052;2024-02-26T10:57:24;7.71;84.53
80743;SHT31;70142;50.894;6.052;2024-02-26T10:59:59;7.88;84.37
80743;SHT31;70142;50.894;6.052;2024-02-26T11:02:34;7.91;84.08
80743;SHT31;70142;50.894;6.052;2024-02-26T11:05:11;7.71;84.45
80743;SHT31;70142;50.894;6.052;2024-02-26T11:07:50;7.81;84.99
80743;SHT31;70142;50.894;6.052;2024-02-26T11:10:26;7.70;84.90
80743;SHT31;70142;50.894;6.052;2024-02-26T11:13:01;7.67;85.00
80743;SHT31;70142;50.894;6.052;2024-02-26T11:15:36;7.64;85.14
80743;SHT31;70142;50.894;6.052;2024-02-26T11:18:10;7.59;85.18
80743;SHT31;70142;50.894;6.052;2024-02-26T11:20:48;7.44;85.29
80743;SHT31;70142;50.894;6.052;2024-02-26T11:23:22;7.32;85.35
80743;SHT31;70142;50.894;6.052;2024-02-26T11:25:58;7.59;86.44
80743;SHT31;70142;50.894;6.052;2024-02-26T11:28:35;7.43;84.97
80743;SHT31;70142;50.894;6.052;2024-02-26T11:31:11;7.24;85.18
80743;SHT31;70142;50.894;6.052;2024-02-26T11:33:46;7.20;85.49
80743;SHT31;70142;50.894;6.052;2024-02-26T11:36:23;7.20;85.39
80743;SHT31;70142;50.894;6.052;2024-02-26T11:38:57;7.39;85.53
80743;SHT31;70142;50.894;6.052;2024-02-26T11:41:31;7.30;85.60
80743;SHT31;70142;50.894;6.052;2024-02-26T11:44:05;7.46;85.81
80743;SHT31;70142;50.894;6.052;2024-02-26T11:46:40;7.63;85.44
80743;SHT31;70142;50.894;6.052;2024-02-26T11:49:31;7.64;85.10
80743;SHT31;70142;50.894;6.052;2024-02-26T11:52:08;7.62;84.91
80743;SHT31;70142;50.894;6.052;2024-02-26T11:54:47;7.56;85.04
80743;SHT31;70142;50.894;6.052;2024-02-26T11:57:25;7.63;85.19
80743;SHT31;70142;50.894;6.052;2024-02-26T12:00:11;7.57;85.62
80743;SHT31;70142;50.894;6.052;2024-02-26T12:02:46;7.70;85.29
80743;SHT31;70142;50.894;6.052;2024-02-26T12:05:21;7.69;84.76
80743;SHT31;70142;50.894;6.052;2024-02-26T12:08:00;7.57;85.23
80743;SHT31;70142;50.894;6.052;2024-02-26T12:10:39;7.54;85.68
80743;SHT31;70142;50.894;6.052;2024-02-26T12:13:15;7.57;85.22
80743;SHT31;70142;50.894;6.052;2024-02-26T12:15:55;7.62;85.71
80743;SHT31;70142;50.894;6.052;2024-02-26T12:18:30;7.46;85.52
80743;SHT31;70142;50.894;6.052;2024-02-26T12:21:04;7.44;85.77
80743;SHT31;70142;50.894;6.052;2024-02-26T12:23:39;7.44;85.96
80743;SHT31;70142;50.894;6.052;2024-02-26T12:26:12;7.56;85.54
80743;SHT31;70142;50.894;6.052;2024-02-26T12:28:46;7.37;85.68
80743;SHT31;70142;50.894;6.052;2024-02-26T12:31:20;7.52;86.03
80743;SHT31;70142;50.894;6.052;2024-02-26T12:33:54;7.52;85.97
80743;SHT31;70142;50.894;6.052;2024-02-26T12:36:28;7.39;85.79
80743;SHT31;70142;50.894;6.052;2024-02-26T12:39:03;7.42;86.23
80743;SHT31;70142;50.894;6.052;2024-02-26T12:41:38;7.49;86.06
80743;SHT31;70142;50.894;6.052;2024-02-26T12:44:12;7.34;85.95
80743;SHT31;70142;50.894;6.052;2024-02-26T12:46:46;7.30;85.83
80743;SHT31;70142;50.894;6.052;2024-02-26T12:49:19;7.30;86.43
80743;SHT31;70142;50.894;6.052;2024-02-26T12:51:52;7.44;86.27
80743;SHT31;70142;50.894;6.052;2024-02-26T12:54:30;7.43;86.20
80743;SHT31;70142;50.894;6.052;2024-02-26T12:57:07;7.54;86.01
80743;SHT31;70142;50.894;6.052;2024-02-26T12:59:41;7.60;85.95
80743;SHT31;70142;50.894;6.052;2024-02-26T13:02:14;7.60;85.74
80743;SHT31;70142;50.894;6.052;2024-02-26T13:04:51;7.43;86.00
80743;SHT31;70142;50.894;6.052;2024-02-26T13:07:25;7.40;86.36
80743;SHT31;70142;50.894;6.052;2024-02-26T13:10:00;7.50;86.49
80743;SHT31;70142;50.894;6.052;2024-02-26T13:12:33;7.39;86.38
80743;SHT31;70142;50.894;6.052;2024-02-26T13:15:07;7.34;86.69
80743;SHT31;70142;50.894;6.052;2024-02-26T13:17:47;7.36;86.73
80743;SHT31;70142;50.894;6.052;2024-02-26T13:20:28;7.30;86.78
80743;SHT31;70142;50.894;6.052;2024-02-26T13:23:02;7.39;86.81
80743;SHT31;70142;50.894;6.052;2024-02-26T13:25:38;7.33;86.88
80743;SHT31;70142;50.894;6.052;2024-02-26T13:28:18;7.27;86.88
80743;SHT31;70142;50.894;6.052;2024-02-26T13:30:52;7.30;87.17
80743;SHT31;70142;50.894;6.052;2024-02-26T13:33:26;7.36;86.93
80743;SHT31;70142;50.894;6.052;2024-02-26T13:36:00;7.29;87.07
80743;SHT31;70142;50.894;6.052;2024-02-26T13:38:34;7.23;87.00
80743;SHT31;70142;50.894;6.052;2024-02-26T13:41:08;7.19;87.13
80743;SHT31;70142;50.894;6.052;2024-02-26T13:43:41;7.27;86.94
80743;SHT31;70142;50.894;6.052;2024-02-26T13:46:15;7.32;86.83
80743;SHT31;70142;50.894;6.052;2024-02-26T13:48:48;7.20;87.42
80743;SHT31;70142;50.894;6.052;2024-02-26T13:51:22;7.16;86.51
80743;SHT31;70142;50.894;6.052;2024-02-26T13:53:57;7.02;87.12
80743;SHT31;70142;50.894;6.052;2024-02-26T13:56:33;7.20;86.90
80743;SHT31;70142;50.894;6.052;2024-02-26T13:59:08;7.30;87.14
80743;SHT31;70142;50.894;6.052;2024-02-26T14:01:41;7.18;86.81
80743;SHT31;70142;50.894;6.052;2024-02-26T14:04:14;7.16;86.70
80743;SHT31;70142;50.894;6.052;2024-02-26T14:06:49;7.29;86.70
80743;SHT31;70142;50.894;6.052;2024-02-26T14:09:23;7.34;86.53
80743;SHT31;70142;50.894;6.052;2024-02-26T14:12:08;7.40;86.13
80743;SHT31;70142;50.894;6.052;2024-02-26T14:14:41;7.46;86.37
80743;SHT31;70142;50.894;6.052;2024-02-26T14:17:14;7.47;85.91
80743;SHT31;70142;50.894;6.052;2024-02-26T14:19:47;7.40;86.14
80743;SHT31;70142;50.894;6.052;2024-02-26T14:22:21;7.47;86.58
80743;SHT31;70142;50.894;6.052;2024-02-26T14:24:55;7.34;86.04
80743;SHT31;70142;50.894;6.052;2024-02-26T14:27:30;7.29;86.46
80743;SHT31;70142;50.894;6.052;2024-02-26T14:30:04;7.42;86.54
80743;SHT31;70142;50.894;6.052;2024-02-26T14:32:40;7.32;85.69
80743;SHT31;70142;50.894;6.052;2024-02-26T14:35:14;7.32;86.52
80743;SHT31;70142;50.894;6.052;2024-02-26T14:37:49;7.34;86.32
80743;SHT31;70142;50.894;6.052;2024-02-26T14:40:25;7.29;86.41
80743;SHT31;70142;50.894;6.052;2024-02-26T14:42:59;7.40;86.67
80743;SHT31;70142;50.894;6.052;2024-02-26T14:45:32;7.40;86.09
80743;SHT31;70142;50.894;6.052;2024-02-26T14:48:07;7.27;86.09
80743;SHT31;70142;50.894;6.052;2024-02-26T14:50:41;7.22;86.46
80743;SHT31;70142;50.894;6.052;2024-02-26T14:53:14;7.24;86.70
80743;SHT31;70142;50.894;6.052;2024-02-26T14:55:47;7.13;86.36
80743;SHT31;70142;50.894;6.052;2024-02-26T14:58:21;7.09;86.64
80743;SHT31;70142;50.894;6.052;2024-02-26T15:00:55;7.12;86.78
80743;SHT31;70142;50.894;6.052;2024-02-26T15:03:28;7.11;86.59
80743;SHT31;70142;50.894;6.052;2024-02-26T15:06:01;7.11;86.70
80743;SHT31;70142;50.894;6.052;2024-02-26T15:08:35;7.22;86.75
80743;SHT31;70142;50.894;6.052;2024-02-26T15:11:09;7.24;86.50
80743;SHT31;70142;50.894;6.052;2024-02-26T15:13:43;7.12;86.46
80743;SHT31;70142;50.894;6.052;2024-02-26T15:16:17;7.12;86.69
80743;SHT31;70142;50.894;6.052;2024-02-26T15:18:52;7.23;86.85
80743;SHT31;70142;50.894;6.052;2024-02-26T15:21:25;7.30;86.61
80743;SHT31;70142;50.894;6.052;2024-02-26T15:23:59;7.13;86.27
80743;SHT31;70142;50.894;6.052;2024-02-26T15:26:39;7.18;86.80
80743;SHT31;70142;50.894;6.052;2024-02-26T15:29:14;7.11;86.95
80743;SHT31;70142;50.894;6.052;2024-02-26T15:31:47;7.05;87.34
80743;SHT31;70142;50.894;6.052;2024-02-26T15:34:20;7.01;87.33
80743;SHT31;70142;50.894;6.052;2024-02-26T15:36:53;7.11;87.24
80743;SHT31;70142;50.894;6.052;2024-02-26T15:39:26;7.06;86.69
80743;SHT31;70142;50.894;6.052;2024-02-26T15:42:00;6.99;87.09
80743;SHT31;70142;50.894;6.052;2024-02-26T15:44:36;6.85;87.11
80743;SHT31;70142;50.894;6.052;2024-02-26T15:47:09;6.87;86.98
80743;SHT31;70142;50.894;6.052;2024-02-26T15:49:43;6.91;87.04
80743;SHT31;70142;50.894;6.052;2024-02-26T15:52:16;6.88;86.77
80743;SHT31;70142;50.894;6.052;2024-02-26T15:54:49;6.93;86.87
80743;SHT31;70142;50.894;6.052;2024-02-26T15:57:24;7.02;86.34
80743;SHT31;70142;50.894;6.052;2024-02-26T15:59:59;7.09;86.46
80743;SHT31;70142;50.894;6.052;2024-02-26T16:02:42;7.06;86.05
80743;SHT31;70142;50.894;6.052;2024-02-26T16:05:15;6.93;86.30
80743;SHT31;70142;50.894;6.052;2024-02-26T16:07:53;6.98;86.61
80743;SHT31;70142;50.894;6.052;2024-02-26T16:10:27;6.95;86.72
80743;SHT31;70142;50.894;6.052;2024-02-26T16:13:02;6.92;86.55
80743;SHT31;70142;50.894;6.052;2024-02-26T16:15:38;6.87;86.66
80743;SHT31;70142;50.894;6.052;2024-02-26T16:18:13;6.92;86.73
80743;SHT31;70142;50.894;6.052;2024-02-26T16:20:48;6.92;86.48
80743;SHT31;70142;50.894;6.052;2024-02-26T16:23:21;7.02;86.53
80743;SHT31;70142;50.894;6.052;2024-02-26T16:25:54;7.05;86.39
80743;SHT31;70142;50.894;6.052;2024-02-26T16:28:27;7.08;85.94
80743;SHT31;70142;50.894;6.052;2024-02-26T16:31:02;7.16;85.97